Aviation Digital Data Service (ADDS)

Output produced by METARs form (1555 UTC 23 April 2017)
found at http://www.aviationweather.gov/adds/metars/
 
EEEI 231550Z 27015KT 9999 FEW030 04/M03 Q1005 NOSIG
TAF EEEI 231130Z 2312/2412 29015KT 9999 FEW020 
     BECMG 2320/2322 24006KT 
     PROB40 
     TEMPO 2400/2404 2000 BR BKN005 
     PROB30 
     TEMPO 2408/2412 5000 SHRA SCT020CB
       
EEKA 231450Z 29010KT 250V330 9999 SCT027 05/M02 Q1006
TAF EEKA 231200Z 2313/2319 31015KT 9999 SCT025 
     PROB40 
     TEMPO 2313/2319 SCT010 SCT020CB 
     BECMG 2317/2319 25008KT
       
EEKE 231450Z 30008KT 250V360 9999 FEW042 06/M03 Q1007
TAF EEKE 231400Z 2315/2321 31010KT 9999 SCT025 
     BECMG 2318/2320 25008KT 
     PROB40 
     TEMPO 2319/2321 3000 BR BKN004
       
EEPU 231250Z 30015KT CAVOK 07/M04 Q1004
EETN 231550Z 28016KT 9999 FEW032 04/M02 Q1004 NOSIG
TAF EETN 231106Z 2312/2412 29018KT 9999 SCT030 
     TEMPO 2312/2318 5000 SHRA SCT010 SCT020CB 
     BECMG 2318/2320 25008KT 
     PROB30 
     TEMPO 2322/2405 3000 BR BKN005 
     TEMPO 2409/2412 5000 SHRA SCT020CB
       
EETU 231450Z 29008KT 260V330 9999 FEW055CB 05/M02 Q1004